sensor_id;sensor_type;location;lat;lon;timestamp;pressure;altitude;pressure_sealevel;temperature;humidity
12799;BME280;19250;42.646;26.980;2023-01-25T00:00:53;100534.31;;;3.54;86.13
12799;BME280;19250;42.646;26.980;2023-01-25T00:03:20;100537.66;;;3.74;85.32
12799;BME280;19250;42.646;26.980;2023-01-25T00:05:47;100528.25;;;3.35;86.05
12799;BME280;19250;42.646;26.980;2023-01-25T00:08:13;100528.69;;;3.25;85.81
12799;BME280;19250;42.646;26.980;2023-01-25T00:10:41;100531.63;;;3.37;85.03
12799;BME280;19250;42.646;26.980;2023-01-25T00:13:07;100529.69;;;3.23;84.85
12799;BME280;19250;42.646;26.980;2023-01-25T00:15:34;100531.97;;;3.65;83.81
12799;BME280;19250;42.646;26.980;2023-01-25T00:18:03;100526.00;;;3.27;83.93
12799;BME280;19250;42.646;26.980;2023-01-25T00:20:29;100518.16;;;3.43;84.25
12799;BME280;19250;42.646;26.980;2023-01-25T00:22:56;100518.34;;;3.57;83.01
12799;BME280;19250;42.646;26.980;2023-01-25T00:25:23;100511.50;;;3.53;82.46
12799;BME280;19250;42.646;26.980;2023-01-25T00:27:50;100507.91;;;3.37;82.61
12799;BME280;19250;42.646;26.980;2023-01-25T00:30:17;100511.56;;;3.34;83.68
12799;BME280;19250;42.646;26.980;2023-01-25T00:32:48;100505.50;;;3.83;81.99
12799;BME280;19250;42.646;26.980;2023-01-25T00:35:20;100507.59;;;3.25;83.43
12799;BME280;19250;42.646;26.980;2023-01-25T00:37:47;100511.97;;;3.44;83.71
12799;BME280;19250;42.646;26.980;2023-01-25T00:40:15;100513.84;;;3.42;83.63
12799;BME280;19250;42.646;26.980;2023-01-25T00:42:42;100508.75;;;3.20;84.77
12799;BME280;19250;42.646;26.980;2023-01-25T00:45:10;100505.88;;;3.07;85.33
12799;BME280;19250;42.646;26.980;2023-01-25T00:47:37;100511.75;;;2.95;86.25
12799;BME280;19250;42.646;26.980;2023-01-25T00:50:05;100511.84;;;3.11;86.09
12799;BME280;19250;42.646;26.980;2023-01-25T00:52:33;100509.75;;;2.82;87.60
12799;BME280;19250;42.646;26.980;2023-01-25T00:55:00;100503.72;;;2.80;88.49
12799;BME280;19250;42.646;26.980;2023-01-25T00:57:27;100506.72;;;3.08;87.58
12799;BME280;19250;42.646;26.980;2023-01-25T00:59:54;100500.44;;;3.10;87.07
12799;BME280;19250;42.646;26.980;2023-01-25T01:02:20;100495.53;;;3.56;86.13
12799;BME280;19250;42.646;26.980;2023-01-25T01:04:47;100500.97;;;3.36;86.04
12799;BME280;19250;42.646;26.980;2023-01-25T01:07:14;100499.00;;;3.22;87.86
12799;BME280;19250;42.646;26.980;2023-01-25T01:09:42;100499.38;;;3.14;88.80
12799;BME280;19250;42.646;26.980;2023-01-25T01:12:09;100494.56;;;3.05;90.32
12799;BME280;19250;42.646;26.980;2023-01-25T01:14:36;100487.72;;;3.01;91.59
12799;BME280;19250;42.646;26.980;2023-01-25T01:17:03;100492.16;;;2.82;93.13
12799;BME280;19250;42.646;26.980;2023-01-25T01:19:30;100491.16;;;2.85;93.57
12799;BME280;19250;42.646;26.980;2023-01-25T01:21:57;100482.03;;;2.92;94.70
12799;BME280;19250;42.646;26.980;2023-01-25T01:24:24;100476.00;;;2.90;95.15
12799;BME280;19250;42.646;26.980;2023-01-25T01:26:52;100484.22;;;2.84;95.16
12799;BME280;19250;42.646;26.980;2023-01-25T01:29:19;100479.34;;;2.93;95.93
12799;BME280;19250;42.646;26.980;2023-01-25T01:31:48;100474.75;;;3.33;94.22
12799;BME280;19250;42.646;26.980;2023-01-25T01:34:15;100470.09;;;3.20;94.54
12799;BME280;19250;42.646;26.980;2023-01-25T01:36:42;100466.19;;;3.27;93.66
12799;BME280;19250;42.646;26.980;2023-01-25T01:39:09;100466.84;;;2.97;94.03
12799;BME280;19250;42.646;26.980;2023-01-25T01:41:36;100472.13;;;2.61;96.64
12799;BME280;19250;42.646;26.980;2023-01-25T01:44:04;100462.53;;;2.96;96.36
12799;BME280;19250;42.646;26.980;2023-01-25T01:46:32;100462.09;;;3.05;95.38
12799;BME280;19250;42.646;26.980;2023-01-25T01:49:02;100463.88;;;3.21;93.46
12799;BME280;19250;42.646;26.980;2023-01-25T01:51:34;100457.47;;;2.74;95.02
12799;BME280;19250;42.646;26.980;2023-01-25T01:54:04;100462.03;;;2.33;95.75
12799;BME280;19250;42.646;26.980;2023-01-25T01:56:34;100464.94;;;3.00;93.82
12799;BME280;19250;42.646;26.980;2023-01-25T01:59:02;100374.75;;;2.78;91.08
12799;BME280;19250;42.646;26.980;2023-01-25T02:01:31;100464.19;;;3.50;88.93
12799;BME280;19250;42.646;26.980;2023-01-25T02:03:58;100464.47;;;3.09;90.22
12799;BME280;19250;42.646;26.980;2023-01-25T02:06:27;100467.25;;;3.42;88.79
12799;BME280;19250;42.646;26.980;2023-01-25T02:08:55;100464.88;;;3.19;88.06
12799;BME280;19250;42.646;26.980;2023-01-25T02:11:23;100452.50;;;3.21;88.89
12799;BME280;19250;42.646;26.980;2023-01-25T02:13:50;100466.19;;;3.10;89.01
12799;BME280;19250;42.646;26.980;2023-01-25T02:16:18;100459.91;;;3.13;88.66
12799;BME280;19250;42.646;26.980;2023-01-25T02:18:49;100455.03;;;3.05;88.51
12799;BME280;19250;42.646;26.980;2023-01-25T02:21:17;100459.34;;;2.89;87.24
12799;BME280;19250;42.646;26.980;2023-01-25T02:23:46;100459.91;;;3.13;84.68
12799;BME280;19250;42.646;26.980;2023-01-25T02:26:17;100457.69;;;3.05;83.78
12799;BME280;19250;42.646;26.980;2023-01-25T02:28:45;100459.78;;;2.80;84.06
12799;BME280;19250;42.646;26.980;2023-01-25T02:31:13;100459.69;;;2.82;84.40
12799;BME280;19250;42.646;26.980;2023-01-25T02:33:40;100310.66;;;2.26;82.49
12799;BME280;19250;42.646;26.980;2023-01-25T02:36:18;100467.09;;;2.92;82.95
12799;BME280;19250;42.646;26.980;2023-01-25T02:38:48;100469.44;;;2.44;85.32
12799;BME280;19250;42.646;26.980;2023-01-25T02:41:20;100473.69;;;2.65;85.53
12799;BME280;19250;42.646;26.980;2023-01-25T02:43:48;100470.84;;;2.51;84.66
12799;BME280;19250;42.646;26.980;2023-01-25T02:46:15;100470.44;;;2.60;85.65
12799;BME280;19250;42.646;26.980;2023-01-25T02:48:44;100475.47;;;2.64;85.96
12799;BME280;19250;42.646;26.980;2023-01-25T02:51:11;100475.31;;;2.67;85.49
12799;BME280;19250;42.646;26.980;2023-01-25T02:53:38;100476.94;;;2.70;85.57
12799;BME280;19250;42.646;26.980;2023-01-25T02:56:05;100403.41;;;2.30;85.33
12799;BME280;19250;42.646;26.980;2023-01-25T02:58:33;100466.09;;;2.59;85.65
12799;BME280;19250;42.646;26.980;2023-01-25T03:01:00;100464.59;;;2.72;85.53
12799;BME280;19250;42.646;26.980;2023-01-25T03:03:27;100461.97;;;2.89;83.73
12799;BME280;19250;42.646;26.980;2023-01-25T03:05:53;100462.00;;;2.70;84.48
12799;BME280;19250;42.646;26.980;2023-01-25T03:08:20;100464.38;;;2.94;84.05
12799;BME280;19250;42.646;26.980;2023-01-25T03:10:47;100468.06;;;3.08;83.75
12799;BME280;19250;42.646;26.980;2023-01-25T03:13:14;100467.47;;;3.20;83.24
12799;BME280;19250;42.646;26.980;2023-01-25T03:15:42;100464.63;;;3.06;82.86
12799;BME280;19250;42.646;26.980;2023-01-25T03:18:09;100382.25;;;3.03;82.52
12799;BME280;19250;42.646;26.980;2023-01-25T03:20:36;100469.44;;;3.84;80.63
12799;BME280;19250;42.646;26.980;2023-01-25T03:23:03;100469.25;;;3.54;80.73
12799;BME280;19250;42.646;26.980;2023-01-25T03:25:29;100459.56;;;3.20;81.51
12799;BME280;19250;42.646;26.980;2023-01-25T03:27:56;100465.28;;;3.63;80.62
12799;BME280;19250;42.646;26.980;2023-01-25T03:30:23;100384.53;;;2.93;82.03
12799;BME280;19250;42.646;26.980;2023-01-25T03:32:51;100461.84;;;3.09;83.89
12799;BME280;19250;42.646;26.980;2023-01-25T03:35:18;100456.56;;;3.09;84.20
12799;BME280;19250;42.646;26.980;2023-01-25T03:37:45;100460.38;;;3.04;85.05
12799;BME280;19250;42.646;26.980;2023-01-25T03:40:12;100459.59;;;3.02;85.62
12799;BME280;19250;42.646;26.980;2023-01-25T03:42:39;100456.41;;;3.12;85.22
12799;BME280;19250;42.646;26.980;2023-01-25T03:45:06;100462.03;;;2.52;86.33
12799;BME280;19250;42.646;26.980;2023-01-25T03:47:33;100456.63;;;2.55;87.26
12799;BME280;19250;42.646;26.980;2023-01-25T03:50:01;100455.16;;;2.85;86.40
12799;BME280;19250;42.646;26.980;2023-01-25T03:52:31;100467.28;;;2.52;87.19
12799;BME280;19250;42.646;26.980;2023-01-25T03:55:06;100456.72;;;2.89;86.36
12799;BME280;19250;42.646;26.980;2023-01-25T03:57:33;100456.25;;;2.98;85.83
12799;BME280;19250;42.646;26.980;2023-01-25T04:00:00;100457.63;;;2.52;87.31
12799;BME280;19250;42.646;26.980;2023-01-25T04:02:27;100450.41;;;2.74;87.44
12799;BME280;19250;42.646;26.980;2023-01-25T04:04:55;100454.34;;;3.19;86.00
12799;BME280;19250;42.646;26.980;2023-01-25T04:07:23;100363.56;;;2.73;85.02
12799;BME280;19250;42.646;26.980;2023-01-25T04:09:50;100366.94;;;2.41;85.91
12799;BME280;19250;42.646;26.980;2023-01-25T04:12:16;100455.59;;;2.76;88.05
12799;BME280;19250;42.646;26.980;2023-01-25T04:14:43;100452.91;;;2.95;87.42
12799;BME280;19250;42.646;26.980;2023-01-25T04:17:10;100471.91;;;3.01;86.71
12799;BME280;19250;42.646;26.980;2023-01-25T04:19:38;100453.00;;;2.93;87.77
12799;BME280;19250;42.646;26.980;2023-01-25T04:22:05;100453.94;;;2.56;88.36
12799;BME280;19250;42.646;26.980;2023-01-25T04:24:34;100449.56;;;2.74;89.13
12799;BME280;19250;42.646;26.980;2023-01-25T04:27:01;100456.13;;;2.47;89.36
12799;BME280;19250;42.646;26.980;2023-01-25T04:29:28;100456.63;;;2.91;88.28
12799;BME280;19250;42.646;26.980;2023-01-25T04:31:55;100448.47;;;3.14;86.61
12799;BME280;19250;42.646;26.980;2023-01-25T04:34:22;100453.09;;;3.09;85.46
12799;BME280;19250;42.646;26.980;2023-01-25T04:36:49;100452.47;;;3.04;85.85
12799;BME280;19250;42.646;26.980;2023-01-25T04:39:15;100446.78;;;2.77;85.37
12799;BME280;19250;42.646;26.980;2023-01-25T04:41:44;100453.34;;;2.12;87.71
12799;BME280;19250;42.646;26.980;2023-01-25T04:44:11;100353.97;;;1.82;87.14
12799;BME280;19250;42.646;26.980;2023-01-25T04:46:37;100448.72;;;2.55;85.65
12799;BME280;19250;42.646;26.980;2023-01-25T04:49:04;100440.97;;;2.33;86.16
12799;BME280;19250;42.646;26.980;2023-01-25T04:51:31;100450.88;;;2.47;86.21
12799;BME280;19250;42.646;26.980;2023-01-25T04:53:58;100447.28;;;2.48;85.46
12799;BME280;19250;42.646;26.980;2023-01-25T04:56:25;100441.06;;;2.50;85.63
12799;BME280;19250;42.646;26.980;2023-01-25T04:58:53;100448.38;;;2.62;85.01
12799;BME280;19250;42.646;26.980;2023-01-25T05:01:20;100445.19;;;2.56;84.93
12799;BME280;19250;42.646;26.980;2023-01-25T05:03:47;100434.66;;;2.18;86.04
12799;BME280;19250;42.646;26.980;2023-01-25T05:06:13;100441.63;;;2.19;86.61
12799;BME280;19250;42.646;26.980;2023-01-25T05:08:40;100450.81;;;2.11;85.99
12799;BME280;19250;42.646;26.980;2023-01-25T05:11:07;100450.22;;;2.42;85.66
12799;BME280;19250;42.646;26.980;2023-01-25T05:13:34;100461.16;;;2.33;85.95
12799;BME280;19250;42.646;26.980;2023-01-25T05:16:02;100456.63;;;2.17;86.64
12799;BME280;19250;42.646;26.980;2023-01-25T05:18:29;100453.13;;;2.36;85.46
12799;BME280;19250;42.646;26.980;2023-01-25T05:20:56;100460.59;;;2.07;87.02
12799;BME280;19250;42.646;26.980;2023-01-25T05:23:23;100459.22;;;1.99;88.61
12799;BME280;19250;42.646;26.980;2023-01-25T05:25:50;100455.09;;;2.32;87.18
12799;BME280;19250;42.646;26.980;2023-01-25T05:28:34;100456.91;;;2.11;87.42
12799;BME280;19250;42.646;26.980;2023-01-25T05:31:03;100466.28;;;2.54;86.15
12799;BME280;19250;42.646;26.980;2023-01-25T05:33:30;100462.44;;;2.61;85.61
12799;BME280;19250;42.646;26.980;2023-01-25T05:35:57;100462.69;;;2.38;86.25
12799;BME280;19250;42.646;26.980;2023-01-25T05:38:24;100465.78;;;2.09;86.55
12799;BME280;19250;42.646;26.980;2023-01-25T05:40:51;100469.78;;;2.17;86.71
12799;BME280;19250;42.646;26.980;2023-01-25T05:43:18;100467.28;;;2.33;86.87
12799;BME280;19250;42.646;26.980;2023-01-25T05:45:50;100469.06;;;2.33;86.87
12799;BME280;19250;42.646;26.980;2023-01-25T05:48:18;100465.38;;;2.37;86.84
12799;BME280;19250;42.646;26.980;2023-01-25T05:50:45;100470.00;;;2.32;86.91
12799;BME280;19250;42.646;26.980;2023-01-25T05:53:12;100468.88;;;2.56;86.13
12799;BME280;19250;42.646;26.980;2023-01-25T05:55:39;100464.66;;;2.52;85.98
12799;BME280;19250;42.646;26.980;2023-01-25T05:58:06;100464.59;;;2.35;86.68
12799;BME280;19250;42.646;26.980;2023-01-25T06:00:33;100478.47;;;2.19;87.50
12799;BME280;19250;42.646;26.980;2023-01-25T06:03:00;100460.78;;;2.23;88.00
12799;BME280;19250;42.646;26.980;2023-01-25T06:05:28;100457.06;;;2.46;87.42
12799;BME280;19250;42.646;26.980;2023-01-25T06:07:55;100470.91;;;2.68;86.49
12799;BME280;19250;42.646;26.980;2023-01-25T06:10:23;100469.88;;;2.53;87.61
12799;BME280;19250;42.646;26.980;2023-01-25T06:12:50;100463.59;;;2.37;87.62
12799;BME280;19250;42.646;26.980;2023-01-25T06:15:16;100471.44;;;2.20;89.02
12799;BME280;19250;42.646;26.980;2023-01-25T06:17:43;100460.75;;;2.04;89.06
12799;BME280;19250;42.646;26.980;2023-01-25T06:20:10;100461.66;;;1.64;90.54
12799;BME280;19250;42.646;26.980;2023-01-25T06:22:39;100471.69;;;1.95;89.82
12799;BME280;19250;42.646;26.980;2023-01-25T06:25:06;100466.34;;;1.97;90.11
12799;BME280;19250;42.646;26.980;2023-01-25T06:27:33;100463.66;;;2.36;88.08
12799;BME280;19250;42.646;26.980;2023-01-25T06:30:00;100458.63;;;2.31;88.54
12799;BME280;19250;42.646;26.980;2023-01-25T06:32:30;100460.44;;;2.48;87.90
12799;BME280;19250;42.646;26.980;2023-01-25T06:34:57;100463.72;;;2.71;87.48
12799;BME280;19250;42.646;26.980;2023-01-25T06:37:24;100461.06;;;3.07;85.47
12799;BME280;19250;42.646;26.980;2023-01-25T06:39:52;100456.56;;;2.92;85.54
12799;BME280;19250;42.646;26.980;2023-01-25T06:42:19;100461.72;;;2.77;84.98
12799;BME280;19250;42.646;26.980;2023-01-25T06:44:46;100464.59;;;2.72;85.18
12799;BME280;19250;42.646;26.980;2023-01-25T06:47:12;100464.44;;;2.75;85.30
12799;BME280;19250;42.646;26.980;2023-01-25T06:49:39;100466.97;;;3.12;84.24
12799;BME280;19250;42.646;26.980;2023-01-25T06:52:07;100358.66;;;2.84;82.88
12799;BME280;19250;42.646;26.980;2023-01-25T06:54:34;100466.47;;;2.87;83.28
12799;BME280;19250;42.646;26.980;2023-01-25T06:57:02;100373.25;;;2.37;84.33
12799;BME280;19250;42.646;26.980;2023-01-25T06:59:29;100478.16;;;3.17;84.09
12799;BME280;19250;42.646;26.980;2023-01-25T07:01:56;100485.09;;;3.01;83.36
12799;BME280;19250;42.646;26.980;2023-01-25T07:04:23;100482.88;;;3.28;82.96
12799;BME280;19250;42.646;26.980;2023-01-25T07:06:49;100475.22;;;3.23;83.11
12799;BME280;19250;42.646;26.980;2023-01-25T07:09:17;100473.94;;;3.30;82.09
12799;BME280;19250;42.646;26.980;2023-01-25T07:11:48;100472.09;;;3.50;82.19
12799;BME280;19250;42.646;26.980;2023-01-25T07:14:17;100475.34;;;3.55;80.97
12799;BME280;19250;42.646;26.980;2023-01-25T07:16:48;100480.47;;;3.41;81.78
12799;BME280;19250;42.646;26.980;2023-01-25T07:19:15;100479.69;;;3.56;80.83
12799;BME280;19250;42.646;26.980;2023-01-25T07:21:42;100470.56;;;3.63;80.95
12799;BME280;19250;42.646;26.980;2023-01-25T07:24:09;100477.69;;;3.78;80.39
12799;BME280;19250;42.646;26.980;2023-01-25T07:26:38;100474.72;;;3.84;80.34
12799;BME280;19250;42.646;26.980;2023-01-25T07:29:05;100468.31;;;4.05;79.33
12799;BME280;19250;42.646;26.980;2023-01-25T07:31:35;100473.03;;;3.66;80.82
12799;BME280;19250;42.646;26.980;2023-01-25T07:34:02;100478.13;;;3.86;80.58
12799;BME280;19250;42.646;26.980;2023-01-25T07:36:29;100479.78;;;3.71;81.01
12799;BME280;19250;42.646;26.980;2023-01-25T07:38:56;100482.94;;;3.09;83.30
12799;BME280;19250;42.646;26.980;2023-01-25T07:41:24;100482.88;;;3.11;83.55
12799;BME280;19250;42.646;26.980;2023-01-25T07:43:51;100485.91;;;3.20;84.21
12799;BME280;19250;42.646;26.980;2023-01-25T07:46:18;100491.31;;;3.17;84.07
12799;BME280;19250;42.646;26.980;2023-01-25T07:48:46;100490.41;;;3.70;82.13
12799;BME280;19250;42.646;26.980;2023-01-25T07:51:14;100491.09;;;3.56;83.08
12799;BME280;19250;42.646;26.980;2023-01-25T07:53:51;100481.56;;;3.37;83.13
12799;BME280;19250;42.646;26.980;2023-01-25T07:56:19;100482.16;;;3.07;85.50
12799;BME280;19250;42.646;26.980;2023-01-25T07:58:46;100456.75;;;3.41;84.50
12799;BME280;19250;42.646;26.980;2023-01-25T08:01:14;100478.91;;;3.37;84.91
12799;BME280;19250;42.646;26.980;2023-01-25T08:03:41;100421.09;;;2.99;84.97
12799;BME280;19250;42.646;26.980;2023-01-25T08:06:10;100472.72;;;3.20;86.57
12799;BME280;19250;42.646;26.980;2023-01-25T08:08:38;100483.44;;;3.35;85.69
12799;BME280;19250;42.646;26.980;2023-01-25T08:11:06;100477.97;;;3.55;86.24
12799;BME280;19250;42.646;26.980;2023-01-25T08:13:34;100473.25;;;3.10;88.48
12799;BME280;19250;42.646;26.980;2023-01-25T08:16:01;100465.22;;;3.47;88.06
12799;BME280;19250;42.646;26.980;2023-01-25T08:18:28;100465.72;;;3.71;86.78
12799;BME280;19250;42.646;26.980;2023-01-25T08:20:56;100473.19;;;3.28;88.02
12799;BME280;19250;42.646;26.980;2023-01-25T08:23:25;100467.91;;;3.11;88.64
12799;BME280;19250;42.646;26.980;2023-01-25T08:25:51;100457.47;;;3.27;90.09
12799;BME280;19250;42.646;26.980;2023-01-25T08:28:18;100462.31;;;3.52;89.67
12799;BME280;19250;42.646;26.980;2023-01-25T08:30:45;100456.69;;;3.42;89.13
12799;BME280;19250;42.646;26.980;2023-01-25T08:33:12;100463.72;;;3.59;89.87
12799;BME280;19250;42.646;26.980;2023-01-25T08:35:39;100463.44;;;3.48;90.70
12799;BME280;19250;42.646;26.980;2023-01-25T08:38:06;100459.00;;;3.65;89.67
12799;BME280;19250;42.646;26.980;2023-01-25T08:40:34;100455.97;;;3.56;90.24
12799;BME280;19250;42.646;26.980;2023-01-25T08:43:01;100460.25;;;3.41;90.66
12799;BME280;19250;42.646;26.980;2023-01-25T08:45:28;100454.72;;;3.46;91.68
12799;BME280;19250;42.646;26.980;2023-01-25T08:47:58;100450.25;;;3.48;91.17
12799;BME280;19250;42.646;26.980;2023-01-25T08:50:25;100460.88;;;3.63;91.20
12799;BME280;19250;42.646;26.980;2023-01-25T08:52:52;100454.41;;;3.52;91.43
12799;BME280;19250;42.646;26.980;2023-01-25T08:55:19;100454.19;;;3.56;91.26
12799;BME280;19250;42.646;26.980;2023-01-25T08:57:47;100458.91;;;3.50;91.36
12799;BME280;19250;42.646;26.980;2023-01-25T09:00:15;100454.88;;;3.60;91.53
12799;BME280;19250;42.646;26.980;2023-01-25T09:02:42;100455.75;;;3.60;91.85
12799;BME280;19250;42.646;26.980;2023-01-25T09:05:09;100448.81;;;3.75;91.06
12799;BME280;19250;42.646;26.980;2023-01-25T09:07:36;100452.56;;;3.54;91.49
12799;BME280;19250;42.646;26.980;2023-01-25T09:10:04;100453.91;;;3.45;92.88
12799;BME280;19250;42.646;26.980;2023-01-25T09:12:32;100451.88;;;3.50;92.44
12799;BME280;19250;42.646;26.980;2023-01-25T09:15:01;100452.38;;;3.74;92.12
12799;BME280;19250;42.646;26.980;2023-01-25T09:17:28;100443.09;;;3.67;91.43
12799;BME280;19250;42.646;26.980;2023-01-25T09:19:54;100438.63;;;3.84;91.47
12799;BME280;19250;42.646;26.980;2023-01-25T09:22:21;100440.97;;;3.73;91.49
12799;BME280;19250;42.646;26.980;2023-01-25T09:24:48;100446.66;;;3.49;92.95
12799;BME280;19250;42.646;26.980;2023-01-25T09:27:18;100443.53;;;3.75;91.66
12799;BME280;19250;42.646;26.980;2023-01-25T09:29:44;100432.19;;;3.90;91.53
12799;BME280;19250;42.646;26.980;2023-01-25T09:32:13;100427.78;;;4.06;90.67
12799;BME280;19250;42.646;26.980;2023-01-25T09:34:40;100421.31;;;4.12;90.00
12799;BME280;19250;42.646;26.980;2023-01-25T09:37:06;100413.63;;;3.92;90.14
12799;BME280;19250;42.646;26.980;2023-01-25T09:39:33;100419.09;;;4.04;90.69
12799;BME280;19250;42.646;26.980;2023-01-25T09:44:50;100408.38;;;4.07;89.48
12799;BME280;19250;42.646;26.980;2023-01-25T09:47:23;100398.66;;;4.08;89.24
12799;BME280;19250;42.646;26.980;2023-01-25T09:49:58;100391.44;;;4.11;89.88
12799;BME280;19250;42.646;26.980;2023-01-25T09:52:35;100386.50;;;4.05;90.31
12799;BME280;19250;42.646;26.980;2023-01-25T09:55:09;100386.91;;;4.13;89.28
12799;BME280;19250;42.646;26.980;2023-01-25T09:57:37;100388.72;;;3.64;92.49
12799;BME280;19250;42.646;26.980;2023-01-25T10:00:10;100366.00;;;3.62;91.93
12799;BME280;19250;42.646;26.980;2023-01-25T10:02:43;100378.09;;;3.49;92.95
12799;BME280;19250;42.646;26.980;2023-01-25T10:05:13;100382.19;;;3.39;94.31
12799;BME280;19250;42.646;26.980;2023-01-25T10:07:44;100375.28;;;3.69;93.88
12799;BME280;19250;42.646;26.980;2023-01-25T10:10:16;100372.72;;;3.67;91.67
12799;BME280;19250;42.646;26.980;2023-01-25T10:12:43;100370.81;;;3.87;91.32
12799;BME280;19250;42.646;26.980;2023-01-25T10:15:16;100371.00;;;3.99;90.82
12799;BME280;19250;42.646;26.980;2023-01-25T10:17:45;100360.19;;;4.19;89.93
12799;BME280;19250;42.646;26.980;2023-01-25T10:20:15;100348.28;;;4.28;89.38
12799;BME280;19250;42.646;26.980;2023-01-25T10:22:44;100352.72;;;4.27;88.49
12799;BME280;19250;42.646;26.980;2023-01-25T10:25:22;100349.78;;;4.01;90.16
12799;BME280;19250;42.646;26.980;2023-01-25T10:27:54;100341.81;;;4.18;88.62
12799;BME280;19250;42.646;26.980;2023-01-25T10:30:26;100336.19;;;4.08;89.53
12799;BME280;19250;42.646;26.980;2023-01-25T10:32:55;100329.53;;;4.01;91.14
12799;BME280;19250;42.646;26.980;2023-01-25T10:35:24;100334.47;;;4.23;89.82
12799;BME280;19250;42.646;26.980;2023-01-25T10:37:52;100330.38;;;3.86;90.63
12799;BME280;19250;42.646;26.980;2023-01-25T10:40:20;100324.13;;;3.56;92.36
12799;BME280;19250;42.646;26.980;2023-01-25T10:42:50;100310.47;;;3.80;91.27
12799;BME280;19250;42.646;26.980;2023-01-25T10:45:20;100310.25;;;3.52;93.59
12799;BME280;19250;42.646;26.980;2023-01-25T10:47:47;100308.75;;;3.64;93.85
12799;BME280;19250;42.646;26.980;2023-01-25T10:53:02;100309.59;;;3.64;93.07
12799;BME280;19250;42.646;26.980;2023-01-25T10:55:29;100304.28;;;3.97;92.04
12799;BME280;19250;42.646;26.980;2023-01-25T10:57:56;100291.72;;;4.01;91.37
12799;BME280;19250;42.646;26.980;2023-01-25T11:00:24;100291.97;;;3.65;92.20
12799;BME280;19250;42.646;26.980;2023-01-25T11:02:51;100280.50;;;3.66;92.57
12799;BME280;19250;42.646;26.980;2023-01-25T11:05:23;100278.66;;;3.99;91.40
12799;BME280;19250;42.646;26.980;2023-01-25T11:10:44;100195.13;;;3.04;93.00
12799;BME280;19250;42.646;26.980;2023-01-25T11:13:21;100276.81;;;3.53;94.25
12799;BME280;19250;42.646;26.980;2023-01-25T11:15:49;100271.81;;;3.79;92.77
12799;BME280;19250;42.646;26.980;2023-01-25T11:18:17;100270.91;;;3.96;92.33
12799;BME280;19250;42.646;26.980;2023-01-25T11:20:45;100265.28;;;4.02;92.49
12799;BME280;19250;42.646;26.980;2023-01-25T11:23:19;100258.56;;;3.81;93.07
12799;BME280;19250;42.646;26.980;2023-01-25T11:25:48;100254.03;;;3.83;94.58
12799;BME280;19250;42.646;26.980;2023-01-25T11:28:16;100252.25;;;3.83;93.27
12799;BME280;19250;42.646;26.980;2023-01-25T11:30:43;100245.44;;;3.79;93.50
12799;BME280;19250;42.646;26.980;2023-01-25T11:33:11;100245.03;;;3.71;94.01
12799;BME280;19250;42.646;26.980;2023-01-25T11:35:41;100237.81;;;3.75;94.43
12799;BME280;19250;42.646;26.980;2023-01-25T11:38:11;100231.50;;;3.62;94.43
12799;BME280;19250;42.646;26.980;2023-01-25T11:40:40;100228.34;;;4.02;93.87
12799;BME280;19250;42.646;26.980;2023-01-25T11:43:15;100237.47;;;3.81;93.24
12799;BME280;19250;42.646;26.980;2023-01-25T11:45:56;100239.59;;;4.35;92.90
12799;BME280;19250;42.646;26.980;2023-01-25T11:48:40;100228.34;;;4.02;92.07
12799;BME280;19250;42.646;26.980;2023-01-25T11:51:12;100223.75;;;3.74;94.34
12799;BME280;19250;42.646;26.980;2023-01-25T11:53:45;100220.03;;;3.78;94.57
12799;BME280;19250;42.646;26.980;2023-01-25T11:56:18;100221.59;;;4.12;93.68
12799;BME280;19250;42.646;26.980;2023-01-25T11:58:55;100221.44;;;4.00;93.78
12799;BME280;19250;42.646;26.980;2023-01-25T12:01:26;100229.16;;;4.18;93.64
12799;BME280;19250;42.646;26.980;2023-01-25T12:04:04;100223.97;;;4.17;92.83
12799;BME280;19250;42.646;26.980;2023-01-25T12:06:37;100214.81;;;3.93;93.01
12799;BME280;19250;42.646;26.980;2023-01-25T12:09:10;100226.06;;;4.56;92.18
12799;BME280;19250;42.646;26.980;2023-01-25T12:11:44;100233.94;;;4.42;91.62
12799;BME280;19250;42.646;26.980;2023-01-25T12:14:19;100216.34;;;3.81;95.33
12799;BME280;19250;42.646;26.980;2023-01-25T12:16:52;100213.59;;;3.98;95.25
12799;BME280;19250;42.646;26.980;2023-01-25T12:19:31;100227.16;;;3.92;95.24
12799;BME280;19250;42.646;26.980;2023-01-25T12:22:08;100151.16;;;4.13;93.79
12799;BME280;19250;42.646;26.980;2023-01-25T12:24:39;100216.41;;;4.40;93.24
12799;BME280;19250;42.646;26.980;2023-01-25T12:27:12;100220.94;;;4.53;93.42
12799;BME280;19250;42.646;26.980;2023-01-25T12:29:45;100218.78;;;4.45;92.58
12799;BME280;19250;42.646;26.980;2023-01-25T12:32:15;100218.59;;;4.92;92.28
12799;BME280;19250;42.646;26.980;2023-01-25T12:34:45;100225.88;;;5.17;90.31
12799;BME280;19250;42.646;26.980;2023-01-25T12:37:14;100221.41;;;5.03;90.42
12799;BME280;19250;42.646;26.980;2023-01-25T12:39:44;100219.22;;;4.95;90.43
12799;BME280;19250;42.646;26.980;2023-01-25T12:42:14;100217.94;;;4.88;90.69
12799;BME280;19250;42.646;26.980;2023-01-25T12:44:45;100218.72;;;4.61;91.79
12799;BME280;19250;42.646;26.980;2023-01-25T12:47:13;100221.09;;;4.65;92.43
12799;BME280;19250;42.646;26.980;2023-01-25T12:49:46;100218.72;;;4.61;92.22
12799;BME280;19250;42.646;26.980;2023-01-25T12:52:15;100207.06;;;4.79;92.35
12799;BME280;19250;42.646;26.980;2023-01-25T12:54:45;100217.38;;;4.98;91.01
12799;BME280;19250;42.646;26.980;2023-01-25T12:57:15;100210.19;;;4.85;91.51
12799;BME280;19250;42.646;26.980;2023-01-25T12:59:49;100211.97;;;4.85;91.35
12799;BME280;19250;42.646;26.980;2023-01-25T13:02:24;100207.38;;;4.59;93.25
12799;BME280;19250;42.646;26.980;2023-01-25T13:04:57;100206.19;;;4.34;93.85